Date,TemperatureHighF,TemperatureAvgF,TemperatureLowF,DewpointHighF,DewpointAvgF,DewpointLowF,HumidityHigh,HumidityAvg,HumidityLow,PressureMaxIn,PressureMinIn,WindSpeedMaxMPH,WindSpeedAvgMPH,GustSpeedMaxMPH,PrecipitationSumIn
2014-1-1,42.0,31.5,24.0,24.0,17.6,10.0,81,58,34,0.00,40.00,10,4,15,0.00
2014-2-8,41.0,35.7,29.0,28.0,25.5,22.0,85,67,56,0.00,40.00,17,10,31,0.01
2014-2-9,44.0,37.9,35.0,34.0,31.4,28.0,95,78,58,0.00,40.00,18,9,37,0.06
2014-2-10,40.0,35.2,28.0,35.0,28.9,22.0,96,79,52,0.00,40.00,9,4,18,0.17
2014-2-11,38.0,28.3,19.0,23.0,17.6,12.0,80,65,46,0.00,40.00,6,4,10,0.09
2014-2-12,40.0,31.7,23.0,24.0,20.6,18.0,81,64,52,0.00,40.00,7,2,10,0.00
2014-2-13,48.0,38.9,31.0,31.0,26.0,22.0,75,61,44,0.00,40.00,19,6,28,0.00
2014-2-14,45.0,41.2,37.0,30.0,28.7,27.0,70,61,51,0.00,40.00,14,5,19,0.00
2014-3-17,60.0,42.7,32.0,23.0,16.6,9.0,55,38,13,0.00,40.00,29,8,48,0.00
2014-3-18,43.0,32.5,25.0,21.0,12.3,3.0,77,45,26,0.00,40.00,13,6,22,0.00
2014-3-19,47.0,34.2,24.0,16.0,13.2,9.0,65,43,22,0.00,40.00,16,5,27,0.00
2014-3-20,55.0,38.5,25.0,15.0,9.3,-99.9,60,36,12,0.00,40.00,17,6,29,0.00
2014-3-21,58.0,43.4,33.0,14.0,8.6,-99.9,39,26,12,0.00,40.00,15,5,22,0.00
2014-3-22,45.0,39.9,30.0,32.0,21.4,14.0,93,50,30,0.00,40.00,11,5,24,0.08
2014-3-23,54.0,36.7,25.0,20.0,15.8,2.0,66,47,12,0.00,40.00,20,6,31,0.03
2014-4-20,69.0,52.4,40.0,41.0,35.6,31.0,79,56,25,0.00,40.00,29,6,39,0.00
2014-4-21,70.0,54.9,40.0,38.0,32.5,25.0,79,48,18,0.00,40.00,10,4,26,0.00
2014-4-22,72.0,58.0,45.0,35.0,28.4,24.0,48,34,18,0.00,40.00,19,6,36,0.00
2014-4-23,65.0,51.3,39.0,31.0,18.9,10.0,55,29,18,0.00,40.00,24,13,40,0.00
2014-4-24,59.0,45.2,28.0,17.0,12.3,9.0,50,28,16,0.00,40.00,18,8,30,0.00
2014-4-25,70.0,53.6,39.0,22.0,15.2,8.0,41,25,10,0.00,40.00,21,6,41,0.00
2014-4-26,63.0,57.8,51.0,33.0,23.4,15.0,49,27,15,0.00,40.00,25,15,41,0.00
2014-5-26,73.0,56.4,40.0,47.0,43.7,39.0,99,68,34,0.00,40.00,13,5,16,0.01
2014-5-27,82.0,65.6,48.0,47.0,40.5,32.0,77,46,17,0.00,40.00,12,4,22,0.00
2014-5-28,85.0,69.6,54.0,42.0,36.8,32.0,51,33,16,0.00,40.00,11,4,34,0.00
2014-5-29,81.0,70.3,60.0,43.0,36.2,31.0,44,30,18,0.00,40.00,13,5,22,0.00
2014-5-30,75.0,64.0,56.0,52.0,43.8,35.0,84,50,29,0.00,40.00,17,7,29,0.02
2014-5-31,81.0,67.5,50.0,47.0,40.0,23.0,82,43,14,0.00,40.00,14,7,32,0.01
2014-6-1,79.0,69.0,61.0,39.0,29.0,15.0,37,25,9,0.00,40.00,18,8,38,0.00
2014-7-24,89.0,76.7,65.0,51.0,47.5,42.0,47,37,23,0.00,40.00,12,5,21,0.00
2014-7-25,87.0,73.1,62.0,52.0,49.0,45.0,64,45,25,0.00,40.00,17,5,30,0.00
2014-7-26,91.0,71.8,62.0,58.0,50.5,43.0,78,50,19,0.00,40.00,8,4,22,0.03
2014-7-27,91.0,72.7,60.0,55.0,47.9,40.0,80,48,17,0.00,40.00,13,4,24,0.01
2014-7-28,85.0,70.5,62.0,56.0,50.7,45.0,82,52,29,0.00,40.00,12,5,24,0.05
2014-7-29,74.0,63.6,58.0,61.0,57.4,53.0,97,82,54,0.00,40.00,12,4,25,0.32
2014-7-30,77.0,65.4,54.0,58.0,54.8,52.0,98,71,46,0.00,40.00,7,3,13,0.14
2014-7-31,80.0,67.1,56.0,55.0,49.8,45.0,90,60,30,0.00,40.00,10,4,16,0.00
2014-8-1,82.0,68.4,60.0,54.0,49.2,45.0,72,52,31,0.00,40.00,8,4,18,0.01
2014-8-2,89.0,71.0,55.0,47.0,43.3,35.0,69,42,16,0.00,40.00,7,4,13,0.01
2014-8-3,88.0,73.1,58.0,52.0,43.8,39.0,64,37,18,0.00,40.00,22,6,32,0.00
2014-8-4,73.0,64.8,60.0,59.0,55.1,52.0,86,72,52,0.00,40.00,10,4,20,0.02
2014-8-5,80.0,66.8,56.0,57.0,52.0,47.0,94,63,32,0.00,40.00,13,5,21,0.28
2014-8-6,84.0,68.3,57.0,53.0,49.1,39.0,80,55,20,0.00,40.00,17,5,28,0.00
2014-10-25,74.0,59.0,42.0,33.0,29.4,26.0,53,34,21,0.00,40.00,11,4,17,0.00
2014-10-26,69.0,60.7,49.0,39.0,36.1,32.0,65,41,28,0.00,40.00,15,9,26,0.00
2014-10-27,50.0,44.4,37.0,35.0,24.5,16.0,69,48,27,0.00,40.00,12,6,23,0.00
2014-10-28,58.0,41.8,31.0,21.0,15.9,6.0,60,39,13,0.00,40.00,12,4,16,0.00
2014-10-29,62.0,45.3,28.0,19.0,13.4,8.0,46,29,17,0.00,40.00,14,5,24,0.00
2014-10-30,68.0,49.8,36.0,26.0,21.4,16.0,46,34,19,0.00,40.00,6,3,13,0.00
2014-10-31,68.0,52.2,39.0,28.0,25.0,22.0,51,36,21,0.00,40.00,6,3,14,0.00
2014-11-7,60.0,44.2,31.0,32.0,25.9,22.0,68,50,34,0.00,40.00,8,3,13,0.00
2014-11-8,59.0,44.7,35.0,30.0,26.8,23.0,70,52,27,0.00,40.00,13,4,19,0.00
2014-11-9,58.0,44.1,31.0,28.0,23.7,21.0,66,46,27,0.00,40.00,15,5,24,0.00
2014-11-10,47.0,36.8,27.0,31.0,24.2,20.0,75,61,47,0.00,40.00,11,4,21,0.00
2014-11-11,48.0,31.6,19.0,20.0,16.4,10.0,81,56,27,0.00,40.00,16,6,27,0.00
2014-11-12,24.0,17.9,13.0,10.0,4.2,1.0,62,53,47,0.00,40.00,6,3,12,0.00
2014-11-13,22.0,16.7,10.0,19.0,9.8,-1.0,90,75,56,0.00,40.00,5,2,9,0.00
2014-11-14,35.0,27.8,19.0,30.0,24.0,16.0,91,86,73,0.00,40.00,5,2,7,0.11
2014-11-15,43.0,31.6,22.0,31.0,26.1,8.0,94,80,53,0.00,40.00,19,8,35,0.01
2014-11-16,29.0,18.0,9.0,8.0,2.4,-2.0,66,50,37,0.00,40.00,11,4,20,0.18
2014-11-17,31.0,19.2,7.0,11.0,5.5,-1.0,73,55,39,0.00,40.00,5,2,8,0.01
2014-11-18,36.0,24.0,12.0,14.0,8.6,3.0,69,53,35,0.00,40.00,4,3,12,0.00
2014-11-19,43.0,31.1,23.0,16.0,12.9,9.0,65,48,30,0.00,40.00,5,2,9,0.00
2014-11-20,41.0,31.9,24.0,18.0,14.5,12.0,61,49,36,0.00,40.00,7,3,10,0.00
2014-11-21,49.0,36.0,26.0,21.0,17.9,15.0,69,49,30,0.00,40.00,8,2,10,0.00
2014-11-22,42.0,32.9,23.0,32.0,22.7,16.0,95,68,43,0.00,40.00,17,4,31,0.02
2014-11-23,33.0,28.9,21.0,32.0,21.9,10.0,95,76,56,0.00,40.00,13,7,31,0.09
2014-11-24,31.0,23.2,16.0,24.0,17.2,10.0,89,78,59,0.00,40.00,8,2,18,0.10
2014-11-25,28.0,22.2,15.0,20.0,15.7,11.0,87,76,62,0.00,40.00,5,2,8,0.01
2014-11-26,46.0,33.7,24.0,28.0,22.7,17.0,78,64,45,0.00,40.00,4,2,7,0.05
2014-11-27,46.0,37.3,25.0,28.0,25.7,21.0,85,64,49,0.00,40.00,4,2,7,0.01
2014-11-28,48.0,37.4,28.0,29.0,24.5,21.0,81,61,37,0.00,40.00,5,2,8,0.00
2014-11-29,54.0,40.3,28.0,24.0,18.4,14.0,71,45,22,0.00,40.00,16,7,27,0.00
2014-11-30,51.0,45.2,41.0,28.0,17.3,13.0,60,33,26,0.00,40.00,18,6,26,0.00
2014-12-1,50.0,41.1,33.0,28.0,23.7,19.0,71,51,31,0.00,40.00,16,6,25,0.00
2014-12-2,45.0,36.0,28.0,24.0,21.6,19.0,71,56,43,0.00,40.00,5,2,8,0.00
2014-12-3,41.0,36.7,33.0,34.0,27.9,21.0,88,71,53,0.00,40.00,6,3,9,0.00
2014-12-4,44.0,38.9,35.0,38.0,34.7,31.0,95,85,74,0.00,40.00,5,2,7,0.02
2014-12-5,50.0,40.4,36.0,39.0,35.3,30.0,97,83,58,0.00,40.00,4,2,10,0.01
2014-12-6,45.0,38.0,33.0,31.0,29.2,27.0,83,71,55,0.00,40.00,4,2,7,0.00
2014-12-7,51.0,39.5,32.0,34.0,30.1,26.0,87,70,47,0.00,40.00,6,3,9,0.00
2014-12-8,45.0,35.9,28.0,27.0,24.0,21.0,81,63,44,0.00,40.00,5,2,11,0.00
2014-12-9,47.0,34.0,24.0,21.0,17.2,14.0,75,52,26,0.00,40.00,5,2,6,0.00
2014-12-10,48.0,34.2,26.0,18.0,15.2,14.0,63,44,26,0.00,40.00,4,2,8,0.00
2014-12-11,49.0,35.2,25.0,21.0,17.2,15.0,70,48,29,0.00,40.00,4,3,10,0.00
2014-12-12,45.0,37.6,31.0,24.0,22.3,21.0,67,54,41,0.00,40.00,6,2,11,0.00
2014-12-13,46.0,37.1,32.0,33.0,27.1,23.0,96,70,42,0.00,40.00,26,6,37,0.04
2014-12-14,36.0,32.0,30.0,31.0,27.8,24.0,96,84,64,0.00,40.00,11,7,19,0.19
2014-12-15,39.0,28.6,21.0,27.0,21.3,15.0,92,75,47,0.00,40.00,9,3,13,0.01
2014-12-16,36.0,26.9,21.0,24.0,19.8,14.0,88,74,61,0.00,40.00,4,2,10,0.01
2014-12-17,36.0,31.1,26.0,31.0,27.5,23.0,96,86,75,0.00,40.00,6,1,10,0.02
2014-12-18,36.0,31.5,29.0,32.0,29.2,27.0,96,92,73,0.00,40.00,8,4,12,0.04
2014-12-19,34.0,28.6,23.0,27.0,24.3,18.0,94,84,68,0.00,40.00,8,3,13,0.04
2014-12-20,34.0,26.5,23.0,27.0,20.9,17.0,95,80,64,0.00,40.00,5,2,7,0.04
2014-12-21,35.0,30.8,29.0,32.0,28.3,26.0,94,91,87,0.00,40.00,20,9,34,0.09
2014-12-22,37.0,32.4,27.0,32.0,26.0,13.0,95,78,55,0.00,40.00,19,9,34,0.25
2014-12-23,30.0,24.8,14.0,13.0,10.6,6.0,73,55,42,0.00,40.00,16,8,28,0.01
2014-12-24,28.0,19.1,10.0,13.0,7.2,2.0,72,60,45,0.00,40.00,5,2,11,0.00
2014-12-25,34.0,25.5,21.0,29.0,21.3,11.0,93,84,62,0.00,40.00,15,4,20,0.07
2014-12-26,25.0,20.3,13.0,22.0,14.0,4.0,92,77,59,0.00,40.00,14,6,21,0.01
2014-12-27,24.0,14.0,6.0,9.0,4.1,0.0,78,65,45,0.00,40.00,6,2,8,0.01
2014-12-28,25.0,16.6,10.0,16.0,9.0,3.0,89,72,59,0.00,40.00,4,2,8,0.01
2014-12-29,28.0,19.5,12.0,20.0,14.4,6.0,89,81,65,0.00,40.00,9,2,12,0.11
2014-12-30,12.0,7.4,0.0,6.0,0.2,-8.0,84,72,62,0.00,40.00,7,4,14,0.02
2014-12-31,17.0,6.7,-3.0,2.0,-3.0,-10.0,78,64,51,0.00,40.00,4,2,10,0.01
2015-1-1,26.0,13.7,6.0,7.0,2.1,-3.0,72,60,43,0.00,40.00,6,3,12,0.00
2015-1-2,26.0,16.3,4.0,10.0,6.0,-1.0,80,64,50,0.00,40.00,3,2,6,0.00